Time;durP1;ratioP1;P1;durP2;ratioP2;P2;SDS_P1;SDS_P2;PMS_P1;PMS_P2;Temp;Humidity;BMP_temperature;BMP_pressure;BME280_temperature;BME280_humidity;BME280_pressure;Samples;Min_cycle;Max_cycle;Signal;HPM_P1;HPM_P2
2022/05/31 00:00:05;;;;;;;;;;;;;;;;;;5088062;28;19942;-74
2022/05/31 00:02:52;;;;;;;;;;;;;;;;;;5091676;28;19993;-75
2022/05/31 00:05:38;;;;;;;;;;;;;;;;;;5083480;28;19908;-79
2022/05/31 00:08:25;;;;;;;;;;;;;;;;;;5087469;28;20000;-75
2022/05/31 00:11:11;;;;;;;;;;;;;;;;;;5088711;28;20252;-75
2022/05/31 00:13:58;;;;;;;;;;;;;;;;;;5087561;28;19912;-76
2022/05/31 00:16:45;;;;;;;;;;;;;;;;;;5086301;28;19920;-75
2022/05/31 00:19:32;;;;;;;;;;;;;;;;;;5079171;28;19922;-74
2022/05/31 00:22:18;;;;;;;;;;;;;;;;;;5087806;28;19912;-76
2022/05/31 00:25:05;;;;;;;;;;;;;;;;;;5086930;28;20364;-75
2022/05/31 00:27:51;;;;;;;;;;;;;;;;;;5086516;28;19912;-74
2022/05/31 00:30:38;;;;;;;;;;;;;;;;;;5087434;28;19959;-74
2022/05/31 00:33:24;;;;;;;;;;;;;;;;;;5087523;28;19924;-75
2022/05/31 00:36:11;;;;;;;;;;;;;;;;;;5101373;28;19908;-75
2022/05/31 00:38:58;;;;;;;;;;;;;;;;;;5085756;28;19926;-74
2022/05/31 00:41:45;;;;;;;;;;;;;;;;;;5085291;28;19922;-75
2022/05/31 00:44:31;;;;;;;;;;;;;;;;;;5085051;28;19938;-76
2022/05/31 00:47:18;;;;;;;;;;;;;;;;;;5088545;28;19924;-76
2022/05/31 00:50:04;;;;;;;;;;;;;;;;;;5085202;28;19908;-74
2022/05/31 00:52:51;;;;;;;;;;;;;;;;;;5077860;28;20306;-74
2022/05/31 00:55:37;;;;;;;;;;;;;;;;;;5090319;28;19916;-75
2022/05/31 00:58:24;;;;;;;;;;;;;;;;;;5087372;28;19999;-75
2022/05/31 01:01:10;;;;;;;;;;;;;;;;;;5073001;28;19919;-75
2022/05/31 01:03:57;;;;;;;;;;;;;;;;;;5085310;28;19912;-75
2022/05/31 01:06:43;;;;;;;;;;;;;;;;;;5085921;28;20249;-75
2022/05/31 01:09:30;;;;;;;;;;;;;;;;;;5087141;28;19918;-75
2022/05/31 01:12:16;;;;;;;;;;;;;;;;;;5087290;28;19915;-75
2022/05/31 01:15:03;;;;;;;;;;;;;;;;;;5081860;28;20291;-75
2022/05/31 01:17:49;;;;;;;;;;;;;;;;;;5090179;28;20030;-74
2022/05/31 01:20:36;;;;;;;;;;;;;;;;;;5085367;28;20363;-75
2022/05/31 01:23:22;;;;;;;;;;;;;;;;;;5083098;28;19921;-75
2022/05/31 01:26:08;;;;;;;;;;;;;;;;;;5089967;28;20359;-75
2022/05/31 01:28:55;;;;;;;;;;;;;;;;;;5090832;28;19961;-75
2022/05/31 01:31:42;;;;;;;;;;;;;;;;;;5090010;28;19916;-75
2022/05/31 01:34:28;;;;;;;;;;;;;;;;;;5091538;28;19924;-75
2022/05/31 01:37:15;;;;;;;;;;;;;;;;;;5086037;28;19969;-75
2022/05/31 01:40:01;;;;;;;;;;;;;;;;;;5089683;28;19913;-76
2022/05/31 01:42:47;;;;;;;;;;;;;;;;;;5090353;28;19916;-75
2022/05/31 01:45:34;;;;;;;;;;;;;;;;;;5088348;28;19908;-75
2022/05/31 01:48:21;;;;;;;;;;;;;;;;;;5084637;28;19914;-74
2022/05/31 01:51:07;;;;;;;;;;;;;;;;;;5087344;28;19916;-75
2022/05/31 01:53:54;;;;;;;;;;;;;;;;;;5083254;28;19912;-75
2022/05/31 01:56:40;;;;;;;;;;;;;;;;;;5084473;28;19912;-75
2022/05/31 01:59:27;;;;;;;;;;;;;;;;;;5103062;28;19919;-74
2022/05/31 02:02:15;;;;;;;;;;;;;;;;;;5092948;28;19924;-75
2022/05/31 02:05:01;;;;;;;;;;;;;;;;;;5090321;28;20388;-75
2022/05/31 02:07:48;;;;;;;;;;;;;;;;;;5088710;28;19927;-75
2022/05/31 02:10:34;;;;;;;;;;;;;;;;;;5093263;28;19912;-76
2022/05/31 02:13:20;;;;;;;;;;;;;;;;;;5085894;28;19947;-75
2022/05/31 02:16:07;;;;;;;;;;;;;;;;;;5089711;28;19912;-74
2022/05/31 02:21:59;;;;;;;;;;;;;;;;;;5086637;28;19914;-75
2022/05/31 02:24:45;;;;;;;;;;;;;;;;;;5091834;28;19912;-75
2022/05/31 02:27:35;;;;;;;;;;;;;;;;;;5089049;28;19912;-76
2022/05/31 02:30:21;;;;;;;;;;;;;;;;;;5087422;28;19916;-75
2022/05/31 02:33:08;;;;;;;;;;;;;;;;;;5085021;28;19924;-76
2022/05/31 02:35:54;;;;;;;;;;;;;;;;;;5094742;28;19912;-76
2022/05/31 02:38:41;;;;;;;;;;;;;;;;;;5087096;28;19927;-75
2022/05/31 02:41:29;;;;;;;;;;;;;;;;;;5091271;28;20391;-76
2022/05/31 02:44:15;;;;;;;;;;;;;;;;;;5088119;28;19912;-75
2022/05/31 02:47:02;;;;;;;;;;;;;;;;;;5103437;27;19918;-75
2022/05/31 02:49:49;;;;;;;;;;;;;;;;;;5088911;28;19912;-76
2022/05/31 02:52:35;;;;;;;;;;;;;;;;;;5085070;28;19912;-75
2022/05/31 02:55:22;;;;;;;;;;;;;;;;;;5089376;28;19910;-79
2022/05/31 02:58:08;;;;;;;;;;;;;;;;;;5086219;28;20362;-76
2022/05/31 03:00:55;;;;;;;;;;;;;;;;;;5087531;28;19918;-75
2022/05/31 03:03:41;;;;;;;;;;;;;;;;;;5077371;28;19919;-75
2022/05/31 03:06:27;;;;;;;;;;;;;;;;;;5081053;28;20513;-75
2022/05/31 03:09:14;;;;;;;;;;;;;;;;;;5087397;28;19919;-75
2022/05/31 03:12:00;;;;;;;;;;;;;;;;;;5101050;28;19916;-76
2022/05/31 03:14:49;;;;;;;;;;;;;;;;;;5089051;28;19916;-75
2022/05/31 03:17:35;;;;;;;;;;;;;;;;;;5079491;28;20598;-75
2022/05/31 03:20:22;;;;;;;;;;;;;;;;;;5087386;28;19916;-76
2022/05/31 03:23:08;;;;;;;;;;;;;;;;;;5091751;28;19922;-77
2022/05/31 03:25:55;;;;;;;;;;;;;;;;;;5091955;28;19912;-77
2022/05/31 03:28:41;;;;;;;;;;;;;;;;;;5087842;28;19915;-74
2022/05/31 03:31:28;;;;;;;;;;;;;;;;;;5093368;28;20376;-77
2022/05/31 03:34:14;;;;;;;;;;;;;;;;;;5086916;28;19931;-76
2022/05/31 03:37:01;;;;;;;;;;;;;;;;;;5084418;28;19920;-75
2022/05/31 03:39:47;;;;;;;;;;;;;;;;;;5072078;28;19957;-77
2022/05/31 03:42:34;;;;;;;;;;;;;;;;;;5087946;28;19919;-76
2022/05/31 03:45:20;;;;;;;;;;;;;;;;;;5086620;28;19918;-76
2022/05/31 03:48:07;;;;;;;;;;;;;;;;;;5086045;28;19908;-76
2022/05/31 03:50:53;;;;;;;;;;;;;;;;;;5090235;28;19923;-76
2022/05/31 03:53:40;;;;;;;;;;;;;;;;;;5101216;27;19908;-77
2022/05/31 03:56:27;;;;;;;;;;;;;;;;;;5088062;28;19915;-76
2022/05/31 03:59:13;;;;;;;;;;;;;;;;;;5095237;28;20287;-76
2022/05/31 04:02:00;;;;;;;;;;;;;;;;;;5087162;28;19918;-77
2022/05/31 04:04:46;;;;;;;;;;;;;;;;;;5088206;28;19916;-77
2022/05/31 04:07:33;;;;;;;;;;;;;;;;;;5083633;28;19927;-76
2022/05/31 04:10:19;;;;;;;;;;;;;;;;;;5090757;28;19916;-76
2022/05/31 04:13:06;;;;;;;;;;;;;;;;;;5088191;28;19911;-75
2022/05/31 04:15:52;;;;;;;;;;;;;;;;;;5092224;28;19927;-75
2022/05/31 04:18:39;;;;;;;;;;;;;;;;;;5086713;28;19920;-76
2022/05/31 04:21:28;;;;;;;;;;;;;;;;;;5085425;28;19916;-75
2022/05/31 04:24:14;;;;;;;;;;;;;;;;;;5082289;28;19919;-76
2022/05/31 04:27:00;;;;;;;;;;;;;;;;;;5087614;28;19927;-76
2022/05/31 04:29:47;;;;;;;;;;;;;;;;;;5086303;28;19922;-76
2022/05/31 04:32:33;;;;;;;;;;;;;;;;;;5088945;28;19912;-77
2022/05/31 04:35:20;;;;;;;;;;;;;;;;;;5084930;28;19924;-76
2022/05/31 04:38:06;;;;;;;;;;;;;;;;;;5087495;28;19923;-75
2022/05/31 04:40:53;;;;;;;;;;;;;;;;;;5092009;28;19915;-75
2022/05/31 04:43:40;;;;;;;;;;;;;;;;;;5083823;28;20277;-75
2022/05/31 04:46:26;;;;;;;;;;;;;;;;;;5086416;28;19935;-75
2022/05/31 04:49:13;;;;;;;;;;;;;;;;;;5087063;28;19908;-74
2022/05/31 04:51:59;;;;;;;;;;;;;;;;;;5107715;27;19919;-75
2022/05/31 04:54:45;;;;;;;;;;;;;;;;;;5094053;28;20292;-74
2022/05/31 04:57:32;;;;;;;;;;;;;;;;;;5092710;28;20386;-74
2022/05/31 05:00:18;;;;;;;;;;;;;;;;;;5088201;28;19923;-75
2022/05/31 05:03:05;;;;;;;;;;;;;;;;;;5089739;28;19934;-75
2022/05/31 05:05:51;;;;;;;;;;;;;;;;;;5093505;28;19916;-73
2022/05/31 05:08:38;;;;;;;;;;;;;;;;;;5088371;28;19916;-74
2022/05/31 05:11:24;;;;;;;;;;;;;;;;;;5095139;28;19916;-76
2022/05/31 05:14:11;;;;;;;;;;;;;;;;;;5093021;28;20033;-75
2022/05/31 05:16:58;;;;;;;;;;;;;;;;;;5093749;28;19912;-76
2022/05/31 05:19:44;;;;;;;;;;;;;;;;;;5092980;28;19916;-75
2022/05/31 05:22:31;;;;;;;;;;;;;;;;;;5092577;28;19918;-74
2022/05/31 05:25:17;;;;;;;;;;;;;;;;;;5086763;28;19912;-75
2022/05/31 05:30:38;;;;;;;;;;;;;;;;;;5092287;28;20422;-74
2022/05/31 05:31:10;;;;;;;;;;;;;;;;;;5088816;28;20007;-74
2022/05/31 05:33:56;;;;;;;;;;;;;;;;;;5092796;28;19926;-75
2022/05/31 05:36:43;;;;;;;;;;;;;;;;;;5104800;27;19912;-74
2022/05/31 05:39:29;;;;;;;;;;;;;;;;;;5106282;27;19920;-74
2022/05/31 05:42:16;;;;;;;;;;;;;;;;;;5088591;28;19916;-75
2022/05/31 05:45:07;;;;;;;;;;;;;;;;;;5091747;28;20277;-75
2022/05/31 05:47:53;;;;;;;;;;;;;;;;;;5092393;28;19918;-74
2022/05/31 05:50:40;;;;;;;;;;;;;;;;;;5090910;28;19912;-74
2022/05/31 05:53:28;;;;;;;;;;;;;;;;;;5088484;28;20372;-75
2022/05/31 05:56:14;;;;;;;;;;;;;;;;;;5093461;28;20444;-77
2022/05/31 05:59:01;;;;;;;;;;;;;;;;;;5090632;28;19927;-76
2022/05/31 06:01:48;;;;;;;;;;;;;;;;;;5093156;28;19917;-74
2022/05/31 06:04:34;;;;;;;;;;;;;;;;;;5085423;28;20297;-75
2022/05/31 06:07:21;;;;;;;;;;;;;;;;;;5092783;28;19914;-75
2022/05/31 06:10:07;;;;;;;;;;;;;;;;;;5088699;28;19931;-75
2022/05/31 06:12:54;;;;;;;;;;;;;;;;;;5087218;28;19961;-75
2022/05/31 06:15:40;;;;;;;;;;;;;;;;;;5087303;28;20724;-76
2022/05/31 06:18:27;;;;;;;;;;;;;;;;;;5090292;28;19927;-77
2022/05/31 06:21:13;;;;;;;;;;;;;;;;;;5087507;28;20333;-78
2022/05/31 06:24:00;;;;;;;;;;;;;;;;;;5088126;28;19924;-78
2022/05/31 06:26:46;;;;;;;;;;;;;;;;;;5091787;28;19908;-78
2022/05/31 06:29:33;;;;;;;;;;;;;;;;;;5089166;28;19961;-79
2022/05/31 06:32:19;;;;;;;;;;;;;;;;;;5080596;28;19982;-78
2022/05/31 06:35:06;;;;;;;;;;;;;;;;;;5070503;28;19921;-78
2022/05/31 06:37:52;;;;;;;;;;;;;;;;;;5039552;28;19921;-78
2022/05/31 06:40:42;;;;;;;;;;;;;;;;;;5040735;28;19923;-77
2022/05/31 06:43:28;;;;;;;;;;;;;;;;;;5045605;28;19909;-77
2022/05/31 06:46:15;;;;;;;;;;;;;;;;;;5042485;28;19913;-77
2022/05/31 06:49:01;;;;;;;;;;;;;;;;;;5042778;28;19931;-77
2022/05/31 06:57:58;;;;;;;;;;;;;;;;;;5041375;28;19924;-77
2022/05/31 07:00:45;;;;;;;;;;;;;;;;;;5048886;28;19917;-77
2022/05/31 07:03:31;;;;;;;;;;;;;;;;;;5043995;28;19909;-77
2022/05/31 07:06:18;;;;;;;;;;;;;;;;;;5042805;28;19913;-78
2022/05/31 07:09:05;;;;;;;;;;;;;;;;;;5043574;28;19942;-78
2022/05/31 07:11:51;;;;;;;;;;;;;;;;;;5048222;28;19915;-78
2022/05/31 07:14:38;;;;;;;;;;;;;;;;;;5048038;28;19909;-78
2022/05/31 07:17:24;;;;;;;;;;;;;;;;;;5042699;28;20553;-78
2022/05/31 07:20:11;;;;;;;;;;;;;;;;;;5061601;28;19909;-77
2022/05/31 07:22:57;;;;;;;;;;;;;;;;;;5047626;28;19917;-78
2022/05/31 07:25:43;;;;;;;;;;;;;;;;;;5047786;28;20361;-78
2022/05/31 07:28:30;;;;;;;;;;;;;;;;;;5046639;28;19963;-78
2022/05/31 07:31:16;;;;;;;;;;;;;;;;;;5039124;28;20397;-78
2022/05/31 07:34:04;;;;;;;;;;;;;;;;;;5059455;28;19932;-77
2022/05/31 07:36:50;;;;;;;;;;;;;;;;;;5070483;28;19917;-77
2022/05/31 07:39:37;;;;;;;;;;;;;;;;;;5065949;28;19924;-78
2022/05/31 07:42:23;;;;;;;;;;;;;;;;;;5067630;28;20275;-78
2022/05/31 07:45:11;;;;;;;;;;;;;;;;;;5060354;28;19913;-78
2022/05/31 07:47:57;;;;;;;;;;;;;;;;;;5078019;28;19934;-78
2022/05/31 07:50:44;;;;;;;;;;;;;;;;;;5063477;28;20299;-77
2022/05/31 07:53:31;;;;;;;;;;;;;;;;;;5065875;28;19919;-77
2022/05/31 07:56:17;;;;;;;;;;;;;;;;;;5067518;28;20364;-76
2022/05/31 07:59:04;;;;;;;;;;;;;;;;;;5082093;28;19974;-77
2022/05/31 08:01:50;;;;;;;;;;;;;;;;;;5064546;28;19916;-77
2022/05/31 08:04:37;;;;;;;;;;;;;;;;;;5066978;28;19919;-77
2022/05/31 08:07:23;;;;;;;;;;;;;;;;;;5062619;28;19922;-77
2022/05/31 08:10:10;;;;;;;;;;;;;;;;;;5070914;28;19928;-77
2022/05/31 08:12:56;;;;;;;;;;;;;;;;;;5062192;28;20253;-78
2022/05/31 08:15:43;;;;;;;;;;;;;;;;;;5068063;28;20288;-78
2022/05/31 08:18:29;;;;;;;;;;;;;;;;;;5086029;28;19928;-77
2022/05/31 08:21:16;;;;;;;;;;;;;;;;;;5073570;28;19926;-78
2022/05/31 08:24:02;;;;;;;;;;;;;;;;;;5070253;28;19913;-77
2022/05/31 08:26:49;;;;;;;;;;;;;;;;;;5066796;28;19908;-76
2022/05/31 08:29:35;;;;;;;;;;;;;;;;;;5070238;28;19991;-77
2022/05/31 08:32:22;;;;;;;;;;;;;;;;;;5067175;28;19932;-78
2022/05/31 08:35:08;;;;;;;;;;;;;;;;;;5065950;28;19921;-77
2022/05/31 08:37:55;;;;;;;;;;;;;;;;;;5064493;28;19928;-77
2022/05/31 08:40:41;;;;;;;;;;;;;;;;;;5067211;28;19915;-76
2022/05/31 08:43:28;;;;;;;;;;;;;;;;;;5070874;28;19919;-77
2022/05/31 08:46:14;;;;;;;;;;;;;;;;;;5069385;28;19913;-77
2022/05/31 08:49:00;;;;;;;;;;;;;;;;;;5067896;28;19919;-77
2022/05/31 08:51:53;;;;;;;;;;;;;;;;;;5067747;28;19920;-77
2022/05/31 08:57:45;;;;;;;;;;;;;;;;;;5065912;28;20008;-77
2022/05/31 09:00:31;;;;;;;;;;;;;;;;;;5071008;28;19915;-77
2022/05/31 09:03:18;;;;;;;;;;;;;;;;;;5064001;28;19923;-77
2022/05/31 09:06:05;;;;;;;;;;;;;;;;;;5062517;28;19913;-77
2022/05/31 09:08:51;;;;;;;;;;;;;;;;;;5062872;28;19909;-77
2022/05/31 09:11:38;;;;;;;;;;;;;;;;;;5068822;28;19912;-78
2022/05/31 09:14:24;;;;;;;;;;;;;;;;;;5066669;28;19916;-78
2022/05/31 09:17:11;;;;;;;;;;;;;;;;;;5067027;28;20287;-76
2022/05/31 09:19:57;;;;;;;;;;;;;;;;;;5064254;28;20368;-77
2022/05/31 09:22:46;;;;;;;;;;;;;;;;;;5068694;28;19912;-78
2022/05/31 09:25:33;;;;;;;;;;;;;;;;;;5087511;28;20368;-77
2022/05/31 09:28:20;;;;;;;;;;;;;;;;;;5062322;28;19921;-76
2022/05/31 09:31:06;;;;;;;;;;;;;;;;;;5065248;28;19912;-77
2022/05/31 09:33:53;;;;;;;;;;;;;;;;;;5071205;28;19974;-77
2022/05/31 09:36:39;;;;;;;;;;;;;;;;;;5070208;28;19920;-77
2022/05/31 09:39:26;;;;;;;;;;;;;;;;;;5069212;28;20288;-77
2022/05/31 09:42:12;;;;;;;;;;;;;;;;;;5067359;28;20293;-77
2022/05/31 09:44:59;;;;;;;;;;;;;;;;;;5075888;28;19920;-77
2022/05/31 09:47:45;;;;;;;;;;;;;;;;;;5066998;28;19913;-77
2022/05/31 09:50:32;;;;;;;;;;;;;;;;;;5070493;28;19918;-77
2022/05/31 09:59:47;;;;;;;;;;;;;;;;;;5069697;28;19916;-77
2022/05/31 10:02:35;;;;;;;;;;;;;;;;;;5099369;28;19915;-76
2022/05/31 10:05:21;;;;;;;;;;;;;;;;;;5071317;28;19943;-77
2022/05/31 10:08:08;;;;;;;;;;;;;;;;;;5080395;28;19912;-77
2022/05/31 10:10:54;;;;;;;;;;;;;;;;;;5068509;28;20296;-76
2022/05/31 10:13:40;;;;;;;;;;;;;;;;;;5084262;28;19912;-76
2022/05/31 10:16:27;;;;;;;;;;;;;;;;;;5072794;28;19916;-77
2022/05/31 10:19:13;;;;;;;;;;;;;;;;;;5069328;28;20363;-78
2022/05/31 10:22:00;;;;;;;;;;;;;;;;;;5069038;28;19923;-77
2022/05/31 10:24:46;;;;;;;;;;;;;;;;;;5081334;28;20283;-77
2022/05/31 10:27:33;;;;;;;;;;;;;;;;;;5081348;28;19909;-77
2022/05/31 10:30:20;;;;;;;;;;;;;;;;;;5069844;28;20292;-77
2022/05/31 10:33:07;;;;;;;;;;;;;;;;;;5067509;28;19928;-77
2022/05/31 10:35:53;;;;;;;;;;;;;;;;;;5083738;28;19914;-77
2022/05/31 10:38:40;;;;;;;;;;;;;;;;;;5061919;28;19958;-77
2022/05/31 10:41:28;;;;;;;;;;;;;;;;;;5073037;28;19908;-78
2022/05/31 10:44:15;;;;;;;;;;;;;;;;;;5069245;28;19913;-77
2022/05/31 10:47:01;;;;;;;;;;;;;;;;;;5067280;28;19916;-76
2022/05/31 10:49:48;;;;;;;;;;;;;;;;;;5067312;28;20272;-76
2022/05/31 10:52:35;;;;;;;;;;;;;;;;;;5066860;28;19909;-76
2022/05/31 10:55:21;;;;;;;;;;;;;;;;;;5070547;28;19920;-77
2022/05/31 10:58:11;;;;;;;;;;;;;;;;;;5071882;28;19924;-77
2022/05/31 11:00:57;;;;;;;;;;;;;;;;;;5070908;28;19909;-77
2022/05/31 11:03:44;;;;;;;;;;;;;;;;;;5063561;28;20687;-79
2022/05/31 11:06:30;;;;;;;;;;;;;;;;;;5063667;28;20411;-76
2022/05/31 11:12:22;;;;;;;;;;;;;;;;;;5065701;28;19915;-79
2022/05/31 11:15:08;;;;;;;;;;;;;;;;;;5077957;28;20265;-78
2022/05/31 11:17:55;;;;;;;;;;;;;;;;;;5066720;28;20301;-76
2022/05/31 11:20:41;;;;;;;;;;;;;;;;;;5066403;28;19913;-77
2022/05/31 11:23:29;;;;;;;;;;;;;;;;;;5079506;28;20331;-77
2022/05/31 11:26:16;;;;;;;;;;;;;;;;;;5081411;28;19912;-78
2022/05/31 11:29:03;;;;;;;;;;;;;;;;;;5069889;28;19912;-78
2022/05/31 11:31:49;;;;;;;;;;;;;;;;;;5069873;28;20266;-79
2022/05/31 11:34:35;;;;;;;;;;;;;;;;;;5075928;28;19932;-77
2022/05/31 11:37:22;;;;;;;;;;;;;;;;;;5062019;28;19920;-78
2022/05/31 11:40:08;;;;;;;;;;;;;;;;;;5070589;28;19927;-78
2022/05/31 11:42:55;;;;;;;;;;;;;;;;;;5073660;28;19912;-78
2022/05/31 11:45:42;;;;;;;;;;;;;;;;;;5068076;28;20570;-78
2022/05/31 11:48:28;;;;;;;;;;;;;;;;;;5078898;28;19913;-78
2022/05/31 11:51:15;;;;;;;;;;;;;;;;;;5063425;28;20385;-79
2022/05/31 11:54:01;;;;;;;;;;;;;;;;;;5067687;28;19916;-79
2022/05/31 11:56:48;;;;;;;;;;;;;;;;;;5065396;28;20002;-78
2022/05/31 11:59:34;;;;;;;;;;;;;;;;;;5067237;28;19920;-79
2022/05/31 12:02:21;;;;;;;;;;;;;;;;;;5076577;28;20328;-78
2022/05/31 12:05:07;;;;;;;;;;;;;;;;;;5075187;28;20240;-77
2022/05/31 12:07:56;;;;;;;;;;;;;;;;;;5077907;28;19911;-77
2022/05/31 12:10:42;;;;;;;;;;;;;;;;;;5067482;28;19931;-79
2022/05/31 12:13:29;;;;;;;;;;;;;;;;;;5069876;28;19912;-77
2022/05/31 12:16:15;;;;;;;;;;;;;;;;;;5068845;28;19912;-78
2022/05/31 12:19:02;;;;;;;;;;;;;;;;;;5080398;28;19924;-77
2022/05/31 12:21:49;;;;;;;;;;;;;;;;;;5066673;28;20364;-78
2022/05/31 12:24:36;;;;;;;;;;;;;;;;;;5062773;28;20598;-78
2022/05/31 12:27:22;;;;;;;;;;;;;;;;;;5068372;28;19909;-77
2022/05/31 12:30:09;;;;;;;;;;;;;;;;;;5072446;28;19921;-77
2022/05/31 12:32:55;;;;;;;;;;;;;;;;;;5066109;28;19958;-77
2022/05/31 12:35:42;;;;;;;;;;;;;;;;;;5041120;28;19927;-76
2022/05/31 12:38:28;;;;;;;;;;;;;;;;;;5046933;28;20361;-76
2022/05/31 12:41:15;;;;;;;;;;;;;;;;;;5046800;28;19932;-77
2022/05/31 12:44:01;;;;;;;;;;;;;;;;;;5048424;28;19931;-76
2022/05/31 12:46:48;;;;;;;;;;;;;;;;;;5049723;28;19908;-77
2022/05/31 12:49:34;;;;;;;;;;;;;;;;;;5047767;28;19912;-77
2022/05/31 12:55:26;;;;;;;;;;;;;;;;;;5037628;28;19910;-77
2022/05/31 12:58:28;;;;;;;;;;;;;;;;;;5044964;28;19917;-77
2022/05/31 13:01:14;;;;;;;;;;;;;;;;;;5046432;28;19913;-77
2022/05/31 13:04:01;;;;;;;;;;;;;;;;;;5047366;28;19923;-78
2022/05/31 13:06:47;;;;;;;;;;;;;;;;;;5045356;28;20288;-78
2022/05/31 13:09:34;;;;;;;;;;;;;;;;;;5050114;28;19921;-78
2022/05/31 13:21:37;;;;;;;;;;;;;;;;;;5049726;28;19913;-77
2022/05/31 13:24:23;;;;;;;;;;;;;;;;;;5052646;28;20372;-78
2022/05/31 13:27:10;;;;;;;;;;;;;;;;;;5058960;28;19913;-79
2022/05/31 13:29:56;;;;;;;;;;;;;;;;;;5050448;28;19920;-77
2022/05/31 13:32:44;;;;;;;;;;;;;;;;;;5053924;28;19909;-77
2022/05/31 13:35:32;;;;;;;;;;;;;;;;;;5065482;28;19927;-77
2022/05/31 13:38:18;;;;;;;;;;;;;;;;;;5070151;28;19919;-77
2022/05/31 13:41:05;;;;;;;;;;;;;;;;;;5066258;28;20391;-77
2022/05/31 13:43:51;;;;;;;;;;;;;;;;;;5072119;28;19939;-76
2022/05/31 13:46:38;;;;;;;;;;;;;;;;;;5090655;28;19913;-77
2022/05/31 13:49:24;;;;;;;;;;;;;;;;;;5067338;28;20300;-78
2022/05/31 13:52:11;;;;;;;;;;;;;;;;;;5069228;28;19930;-78
2022/05/31 13:54:57;;;;;;;;;;;;;;;;;;5070757;28;19908;-77
2022/05/31 13:57:44;;;;;;;;;;;;;;;;;;5072333;28;20265;-77
2022/05/31 14:00:30;;;;;;;;;;;;;;;;;;5068952;28;19920;-77
2022/05/31 14:03:17;;;;;;;;;;;;;;;;;;5072057;28;19912;-77
2022/05/31 14:06:04;;;;;;;;;;;;;;;;;;5070983;28;19908;-78
2022/05/31 14:08:51;;;;;;;;;;;;;;;;;;5071120;28;19912;-77
2022/05/31 14:11:37;;;;;;;;;;;;;;;;;;5064339;28;19912;-77
2022/05/31 14:14:24;;;;;;;;;;;;;;;;;;5071464;28;19986;-77
2022/05/31 14:17:11;;;;;;;;;;;;;;;;;;5071646;28;19917;-78
2022/05/31 14:19:57;;;;;;;;;;;;;;;;;;5070078;28;20291;-77
2022/05/31 14:22:44;;;;;;;;;;;;;;;;;;5082141;28;19908;-78
2022/05/31 14:25:31;;;;;;;;;;;;;;;;;;5092502;28;19913;-77
2022/05/31 14:28:17;;;;;;;;;;;;;;;;;;5069727;28;20580;-78
2022/05/31 14:31:04;;;;;;;;;;;;;;;;;;5087895;28;19915;-77
2022/05/31 14:33:51;;;;;;;;;;;;;;;;;;5086364;28;19931;-77
2022/05/31 14:36:37;;;;;;;;;;;;;;;;;;5089518;28;20025;-76
2022/05/31 14:39:24;;;;;;;;;;;;;;;;;;5088841;28;19923;-78
2022/05/31 14:42:10;;;;;;;;;;;;;;;;;;5095823;28;19912;-78
2022/05/31 14:44:56;;;;;;;;;;;;;;;;;;5090870;28;19912;-77
2022/05/31 14:47:43;;;;;;;;;;;;;;;;;;5090806;28;19916;-77
2022/05/31 14:50:31;;;;;;;;;;;;;;;;;;5089067;28;19915;-77
2022/05/31 14:53:17;;;;;;;;;;;;;;;;;;5083436;28;19930;-78
2022/05/31 14:56:04;;;;;;;;;;;;;;;;;;5100679;28;20295;-78
2022/05/31 14:58:50;;;;;;;;;;;;;;;;;;5084849;28;19916;-77
2022/05/31 15:01:37;;;;;;;;;;;;;;;;;;5095456;28;19942;-77
2022/05/31 15:04:26;;;;;;;;;;;;;;;;;;5083195;28;19915;-79
2022/05/31 15:07:13;;;;;;;;;;;;;;;;;;5101787;27;20265;-77
2022/05/31 15:09:59;;;;;;;;;;;;;;;;;;5083096;28;19909;-77
2022/05/31 15:19:01;;;;;;;;;;;;;;;;;;5077414;28;19920;-77
2022/05/31 15:21:49;;;;;;;;;;;;;;;;;;5088072;28;19912;-77
2022/05/31 15:24:35;;;;;;;;;;;;;;;;;;5088671;28;19919;-77
2022/05/31 15:27:21;;;;;;;;;;;;;;;;;;5094472;28;19919;-76
2022/05/31 15:30:10;;;;;;;;;;;;;;;;;;5090272;28;19908;-77
2022/05/31 15:32:57;;;;;;;;;;;;;;;;;;5088354;28;19931;-77
2022/05/31 15:35:44;;;;;;;;;;;;;;;;;;5089896;28;19919;-77
2022/05/31 15:38:30;;;;;;;;;;;;;;;;;;5087221;28;19923;-77
2022/05/31 15:41:17;;;;;;;;;;;;;;;;;;5087400;28;20297;-78
2022/05/31 15:44:04;;;;;;;;;;;;;;;;;;5087786;28;19916;-77
2022/05/31 15:46:50;;;;;;;;;;;;;;;;;;5089669;28;19912;-77
2022/05/31 15:49:37;;;;;;;;;;;;;;;;;;5084840;28;19908;-78
2022/05/31 15:52:24;;;;;;;;;;;;;;;;;;5082885;28;19915;-77
2022/05/31 15:55:10;;;;;;;;;;;;;;;;;;5093402;28;19912;-78
2022/05/31 15:57:57;;;;;;;;;;;;;;;;;;5087149;28;20314;-79
2022/05/31 16:00:44;;;;;;;;;;;;;;;;;;5087193;28;19916;-76
2022/05/31 16:03:31;;;;;;;;;;;;;;;;;;5084351;28;19919;-76
2022/05/31 16:06:30;;;;;;;;;;;;;;;;;;;;;
2022/05/31 16:09:17;;;;;;;;;;;;;;;;;;5089385;28;19912;-77
2022/05/31 16:12:04;;;;;;;;;;;;;;;;;;5089065;28;19912;-76
2022/05/31 16:14:50;;;;;;;;;;;;;;;;;;5069750;28;19923;-77
2022/05/31 16:17:37;;;;;;;;;;;;;;;;;;5084727;28;19919;-77
2022/05/31 16:20:23;;;;;;;;;;;;;;;;;;5064854;28;20296;-78
2022/05/31 16:23:10;;;;;;;;;;;;;;;;;;5094252;28;19998;-77
2022/05/31 16:25:56;;;;;;;;;;;;;;;;;;5065999;28;19920;-77
2022/05/31 16:28:43;;;;;;;;;;;;;;;;;;5078685;28;19926;-76
2022/05/31 16:31:29;;;;;;;;;;;;;;;;;;5094714;27;19912;-76
2022/05/31 16:34:16;;;;;;;;;;;;;;;;;;5081545;28;20322;-77
2022/05/31 16:41:10;;;;;;;;;;;;;;;;;;5102005;28;19922;-77
2022/05/31 16:43:14;;;;;;;;;;;;;;;;;;5084383;28;19912;-77
2022/05/31 16:46:00;;;;;;;;;;;;;;;;;;5088921;28;19938;-78
2022/05/31 16:48:50;;;;;;;;;;;;;;;;;;5092948;28;19919;-75
2022/05/31 16:51:36;;;;;;;;;;;;;;;;;;5083285;28;19941;-78
2022/05/31 16:54:23;;;;;;;;;;;;;;;;;;5086647;28;19916;-79
2022/05/31 16:57:09;;;;;;;;;;;;;;;;;;5085538;28;19935;-78
2022/05/31 16:59:56;;;;;;;;;;;;;;;;;;5084749;28;19920;-78
2022/05/31 17:02:42;;;;;;;;;;;;;;;;;;5101851;28;21248;-78
2022/05/31 17:05:29;;;;;;;;;;;;;;;;;;5081248;28;19912;-77
2022/05/31 17:14:46;;;;;;;;;;;;;;;;;;4999945;28;19913;-77
2022/05/31 17:17:32;;;;;;;;;;;;;;;;;;4993933;28;19914;-76
2022/05/31 17:20:22;;;;;;;;;;;;;;;;;;5070945;28;19927;-77
2022/05/31 17:23:08;;;;;;;;;;;;;;;;;;5086008;28;19912;-77
2022/05/31 17:25:56;;;;;;;;;;;;;;;;;;5078604;28;19918;-77
2022/05/31 17:28:42;;;;;;;;;;;;;;;;;;5082972;28;19919;-78
2022/05/31 17:31:29;;;;;;;;;;;;;;;;;;5086224;28;19916;-77
2022/05/31 17:34:15;;;;;;;;;;;;;;;;;;5094812;28;19947;-76
2022/05/31 17:37:04;;;;;;;;;;;;;;;;;;5087545;28;19918;-77
2022/05/31 17:39:50;;;;;;;;;;;;;;;;;;5087249;28;19927;-76
2022/05/31 17:42:37;;;;;;;;;;;;;;;;;;5095084;28;19914;-77
2022/05/31 17:45:23;;;;;;;;;;;;;;;;;;5083492;28;19919;-77
2022/05/31 17:48:10;;;;;;;;;;;;;;;;;;5084297;28;19912;-77
2022/05/31 17:50:56;;;;;;;;;;;;;;;;;;5083935;28;19920;-76
2022/05/31 17:53:43;;;;;;;;;;;;;;;;;;5081188;28;19920;-77
2022/05/31 17:56:29;;;;;;;;;;;;;;;;;;5085864;28;19908;-77
2022/05/31 17:59:15;;;;;;;;;;;;;;;;;;5104126;27;19934;-77
2022/05/31 18:02:02;;;;;;;;;;;;;;;;;;5085245;28;20412;-77
2022/05/31 18:04:48;;;;;;;;;;;;;;;;;;5088010;28;19909;-75
2022/05/31 18:07:35;;;;;;;;;;;;;;;;;;5093541;28;19912;-76
2022/05/31 18:10:22;;;;;;;;;;;;;;;;;;5085722;28;19909;-76
2022/05/31 18:13:08;;;;;;;;;;;;;;;;;;5089629;28;19919;-77
2022/05/31 18:15:54;;;;;;;;;;;;;;;;;;5091038;28;20319;-77
2022/05/31 18:18:41;;;;;;;;;;;;;;;;;;5096406;28;19908;-76
2022/05/31 18:21:27;;;;;;;;;;;;;;;;;;5089636;28;19916;-77
2022/05/31 18:24:14;;;;;;;;;;;;;;;;;;5088933;28;19923;-76
2022/05/31 18:27:01;;;;;;;;;;;;;;;;;;5085362;28;19908;-76
2022/05/31 18:29:47;;;;;;;;;;;;;;;;;;5089445;28;20264;-77
2022/05/31 18:32:36;;;;;;;;;;;;;;;;;;5087189;28;19927;-77
2022/05/31 18:35:22;;;;;;;;;;;;;;;;;;5086434;28;20560;-76
2022/05/31 18:41:05;;;;;;;;;;;;;;;;;;5093057;28;20376;-78
2022/05/31 18:43:51;;;;;;;;;;;;;;;;;;5091473;28;19923;-77
2022/05/31 18:46:38;;;;;;;;;;;;;;;;;;5091032;28;20285;-76
2022/05/31 18:49:24;;;;;;;;;;;;;;;;;;5089804;28;19916;-77
2022/05/31 18:52:11;;;;;;;;;;;;;;;;;;5085966;28;19927;-77
2022/05/31 18:54:58;;;;;;;;;;;;;;;;;;5087154;28;19913;-76
2022/05/31 18:57:45;;;;;;;;;;;;;;;;;;5089178;28;19912;-77
2022/05/31 19:00:31;;;;;;;;;;;;;;;;;;5084538;28;19923;-76
2022/05/31 19:03:18;;;;;;;;;;;;;;;;;;5090443;28;19919;-76
2022/05/31 19:06:07;;;;;;;;;;;;;;;;;;5088643;28;19920;-77
2022/05/31 19:08:54;;;;;;;;;;;;;;;;;;5089548;28;19923;-75
2022/05/31 19:11:41;;;;;;;;;;;;;;;;;;5085113;28;20265;-76
2022/05/31 19:14:27;;;;;;;;;;;;;;;;;;5090179;28;19908;-77
2022/05/31 19:17:13;;;;;;;;;;;;;;;;;;5088860;28;19912;-76
2022/05/31 19:20:00;;;;;;;;;;;;;;;;;;5102418;28;19920;-77
2022/05/31 19:22:47;;;;;;;;;;;;;;;;;;5088180;28;19915;-77
2022/05/31 19:25:33;;;;;;;;;;;;;;;;;;5090291;28;19923;-77
2022/05/31 19:28:20;;;;;;;;;;;;;;;;;;5084649;28;19919;-77
2022/05/31 19:31:06;;;;;;;;;;;;;;;;;;5085024;28;19920;-78
2022/05/31 19:33:53;;;;;;;;;;;;;;;;;;5080989;28;19928;-77
2022/05/31 19:36:40;;;;;;;;;;;;;;;;;;5087289;28;19916;-78
2022/05/31 19:39:26;;;;;;;;;;;;;;;;;;5086355;28;19916;-76
2022/05/31 19:42:13;;;;;;;;;;;;;;;;;;5086095;28;19916;-77
2022/05/31 19:44:59;;;;;;;;;;;;;;;;;;5085536;28;19912;-76
2022/05/31 19:47:46;;;;;;;;;;;;;;;;;;5082850;28;19923;-77
2022/05/31 19:50:32;;;;;;;;;;;;;;;;;;5081095;28;19962;-76